createdAt,value
2022-07-30T00:01:51.960Z,2.90
2022-07-30T00:04:18.839Z,2.73
2022-07-30T00:06:45.508Z,2.57
2022-07-30T00:09:12.141Z,2.60
2022-07-30T00:11:38.799Z,3.00
2022-07-30T00:14:05.511Z,3.20
2022-07-30T00:16:32.253Z,3.10
2022-07-30T00:18:58.924Z,2.83
2022-07-30T00:21:35.841Z,2.60
2022-07-30T00:24:06.263Z,2.87
2022-07-30T00:26:32.939Z,3.00
2022-07-30T00:28:59.871Z,2.77
2022-07-30T00:31:26.532Z,2.70
2022-07-30T00:33:53.183Z,2.60
2022-07-30T00:36:19.831Z,2.40
2022-07-30T00:38:46.463Z,3.00
2022-07-30T00:41:13.179Z,3.30
2022-07-30T00:43:42.512Z,2.80
2022-07-30T00:46:09.211Z,3.00
2022-07-30T00:48:54.792Z,3.20
2022-07-30T00:51:21.661Z,3.60
2022-07-30T00:53:48.299Z,3.90
2022-07-30T00:56:14.939Z,3.80
2022-07-30T00:58:41.593Z,4.40
2022-07-30T01:01:08.320Z,3.80
2022-07-30T01:03:35.066Z,3.90
2022-07-30T01:06:01.692Z,3.87
2022-07-30T01:08:28.358Z,3.77
2022-07-30T01:10:54.977Z,3.97
2022-07-30T01:13:22.676Z,3.70
2022-07-30T01:15:49.350Z,3.63
2022-07-30T01:18:16.034Z,3.70
2022-07-30T01:21:06.599Z,3.17
2022-07-30T01:23:38.419Z,3.30
2022-07-30T01:26:09.944Z,3.80
2022-07-30T01:28:38.615Z,4.20
2022-07-30T01:31:05.683Z,4.27
2022-07-30T01:33:32.811Z,5.53
2022-07-30T01:35:59.540Z,5.70
2022-07-30T01:38:26.996Z,4.50
2022-07-30T01:40:57.757Z,3.93
2022-07-30T01:43:24.704Z,4.50
2022-07-30T01:45:52.083Z,4.77
2022-07-30T01:48:20.112Z,4.90
2022-07-30T01:50:47.181Z,4.70
2022-07-30T01:53:15.684Z,5.07
2022-07-30T01:55:42.346Z,4.47
2022-07-30T01:58:09.958Z,5.50
2022-07-30T02:00:40.630Z,4.60
2022-07-30T02:03:10.001Z,4.00
2022-07-30T02:05:37.250Z,4.37
2022-07-30T02:08:17.191Z,4.80
2022-07-30T02:10:49.970Z,4.97
2022-07-30T02:13:28.079Z,4.30
2022-07-30T02:16:30.679Z,3.87
2022-07-30T02:19:04.472Z,4.27
2022-07-30T02:21:36.727Z,3.80
2022-07-30T02:24:06.151Z,3.30
2022-07-30T02:26:32.815Z,3.60
2022-07-30T02:29:00.504Z,3.20
2022-07-30T02:31:27.672Z,3.43
2022-07-30T02:33:56.593Z,3.27
2022-07-30T02:36:23.264Z,3.13
2022-07-30T02:38:52.548Z,4.37
2022-07-30T02:41:23.404Z,5.00
2022-07-30T02:43:50.135Z,5.00
2022-07-30T02:46:18.035Z,4.90
2022-07-30T02:48:45.273Z,5.73
2022-07-30T02:51:11.981Z,3.87
2022-07-30T02:53:38.809Z,3.93
2022-07-30T02:56:05.961Z,4.70
2022-07-30T02:58:32.595Z,4.30
2022-07-30T03:00:59.244Z,6.20
2022-07-30T03:03:29.056Z,6.60
2022-07-30T03:05:56.211Z,7.20
2022-07-30T03:08:24.288Z,6.23
2022-07-30T03:10:50.935Z,6.07
2022-07-30T03:13:17.674Z,6.23
2022-07-30T03:15:48.855Z,5.70
2022-07-30T03:18:16.184Z,4.50
2022-07-30T03:20:44.261Z,5.20
2022-07-30T03:23:11.345Z,4.40
2022-07-30T03:25:38.220Z,4.60
2022-07-30T03:28:04.999Z,5.73
2022-07-30T03:30:31.901Z,5.47
2022-07-30T03:32:58.689Z,6.10
2022-07-30T03:35:26.352Z,5.67
2022-07-30T03:37:53.982Z,5.93
2022-07-30T03:40:20.695Z,6.60
2022-07-30T03:42:47.783Z,5.97
2022-07-30T03:45:14.504Z,5.10
2022-07-30T03:47:42.099Z,7.00
2022-07-30T03:50:09.450Z,6.70
2022-07-30T03:52:38.675Z,6.63
2022-07-30T03:55:08.962Z,6.40
2022-07-30T03:57:35.882Z,5.17
2022-07-30T04:00:08.232Z,5.10
2022-07-30T04:02:42.570Z,4.50
2022-07-30T04:05:09.520Z,4.90
2022-07-30T04:07:36.175Z,5.83
2022-07-30T04:10:11.703Z,6.70
2022-07-30T04:12:38.624Z,7.17
2022-07-30T04:16:04.998Z,7.03
2022-07-30T04:17:55.842Z,6.87
2022-07-30T04:20:24.807Z,5.90
2022-07-30T04:22:51.697Z,4.90
2022-07-30T04:25:22.974Z,4.50
2022-07-30T04:28:03.266Z,5.87
2022-07-30T04:30:31.013Z,6.23
2022-07-30T04:32:57.638Z,6.77
2022-07-30T04:35:51.056Z,6.47
2022-07-30T04:38:17.612Z,6.47
2022-07-30T04:40:44.269Z,6.90
2022-07-30T04:43:10.928Z,6.40
2022-07-30T04:45:39.508Z,6.80
2022-07-30T04:48:06.630Z,7.10
2022-07-30T04:50:34.014Z,6.00
2022-07-30T04:53:00.648Z,6.80
2022-07-30T04:55:27.325Z,7.60
2022-07-30T04:57:53.964Z,5.57
2022-07-30T05:00:20.646Z,6.87
2022-07-30T05:02:47.443Z,5.67
2022-07-30T05:05:15.341Z,4.93
2022-07-30T05:07:42.030Z,6.70
2022-07-30T05:10:09.547Z,6.80
2022-07-30T05:12:39.106Z,6.10
2022-07-30T05:15:07.229Z,6.10
2022-07-30T05:17:34.255Z,5.70
2022-07-30T05:20:01.048Z,5.27
2022-07-30T05:22:30.714Z,5.10
2022-07-30T05:24:57.636Z,5.10
2022-07-30T05:27:24.302Z,5.10
2022-07-30T05:29:50.951Z,4.80
2022-07-30T05:32:17.939Z,4.50
2022-07-30T05:34:50.071Z,5.40
2022-07-30T05:37:16.923Z,4.10
2022-07-30T05:40:02.907Z,4.00
2022-07-30T05:42:30.448Z,4.37
2022-07-30T05:44:57.087Z,3.70
2022-07-30T05:47:23.843Z,3.67
2022-07-30T05:49:50.472Z,3.80
2022-07-30T05:52:17.128Z,4.77
2022-07-30T05:54:44.248Z,4.97
2022-07-30T05:57:10.917Z,4.20
2022-07-30T05:59:37.545Z,3.50
2022-07-30T06:02:04.320Z,3.73
2022-07-30T06:04:31.029Z,3.20
2022-07-30T06:06:58.040Z,3.40
2022-07-30T06:09:36.107Z,4.70
2022-07-30T06:12:04.376Z,4.00
2022-07-30T06:14:32.108Z,3.60
2022-07-30T06:16:59.115Z,3.53
2022-07-30T06:19:26.291Z,3.83
2022-07-30T06:22:06.371Z,4.30
2022-07-30T06:24:34.153Z,3.40
2022-07-30T06:27:01.173Z,4.17
2022-07-30T06:29:28.124Z,3.40
2022-07-30T06:31:55.023Z,3.10
2022-07-30T06:34:21.682Z,4.30
2022-07-30T06:36:48.840Z,4.20
2022-07-30T06:39:53.864Z,3.60
2022-07-30T06:42:02.287Z,3.80
2022-07-30T06:44:29.020Z,3.40
2022-07-30T06:46:55.669Z,3.20
2022-07-30T06:49:22.883Z,3.57
2022-07-30T06:51:49.613Z,4.00
2022-07-30T06:54:16.263Z,3.80
2022-07-30T06:56:42.924Z,3.77
2022-07-30T06:59:10.498Z,4.07
2022-07-30T07:01:37.225Z,3.77
2022-07-30T07:04:04.351Z,3.43
2022-07-30T07:06:31.099Z,4.27
2022-07-30T07:08:57.749Z,3.70
2022-07-30T07:11:24.516Z,5.20
2022-07-30T07:13:51.203Z,4.50
2022-07-30T07:16:21.642Z,4.10
2022-07-30T07:18:48.574Z,4.73
2022-07-30T07:21:15.715Z,5.30
2022-07-30T07:23:42.596Z,4.50
2022-07-30T07:26:09.625Z,3.97
2022-07-30T07:28:36.355Z,4.07
2022-07-30T07:31:03.485Z,3.20
2022-07-30T07:33:30.236Z,3.60
2022-07-30T07:35:56.910Z,3.00
2022-07-30T07:38:23.573Z,3.63
2022-07-30T07:40:50.267Z,3.50
2022-07-30T07:43:16.899Z,3.17
2022-07-30T07:45:43.683Z,3.30
2022-07-30T07:48:10.365Z,3.53
2022-07-30T07:50:37.055Z,3.33
2022-07-30T07:53:04.007Z,3.40
2022-07-30T07:55:31.704Z,3.50
2022-07-30T07:58:00.364Z,3.90
2022-07-30T08:00:27.031Z,3.50
2022-07-30T08:02:53.881Z,3.40
2022-07-30T08:05:20.694Z,2.70
2022-07-30T08:07:47.357Z,2.73
2022-07-30T08:10:16.222Z,3.00
2022-07-30T08:12:43.201Z,3.10
2022-07-30T08:15:10.266Z,3.07
2022-07-30T08:17:41.277Z,3.23
2022-07-30T08:20:08.687Z,3.33
2022-07-30T08:22:35.347Z,3.20
2022-07-30T08:25:03.829Z,3.20
2022-07-30T08:27:30.639Z,2.70
2022-07-30T08:29:57.891Z,2.67
2022-07-30T08:32:25.246Z,3.57
2022-07-30T08:34:51.892Z,2.80
2022-07-30T08:37:19.303Z,2.90
2022-07-30T08:39:45.921Z,2.80
2022-07-30T08:42:13.526Z,2.97
2022-07-30T08:44:40.208Z,2.53
2022-07-30T08:47:07.846Z,2.42
2022-07-30T08:49:34.479Z,2.72
2022-07-30T08:52:01.413Z,2.80
2022-07-30T08:54:28.334Z,2.80
2022-07-30T08:56:54.991Z,3.20
2022-07-30T08:59:23.306Z,3.00
2022-07-30T09:01:52.011Z,3.07
2022-07-30T09:04:18.771Z,2.73
2022-07-30T09:06:45.692Z,2.50
2022-07-30T09:09:13.939Z,3.23
2022-07-30T09:11:40.643Z,2.80
2022-07-30T09:14:12.147Z,2.63
2022-07-30T09:16:39.163Z,2.55
2022-07-30T09:19:20.475Z,2.78
2022-07-30T09:22:00.109Z,2.80
2022-07-30T09:24:27.067Z,2.92
2022-07-30T09:27:05.270Z,3.03
2022-07-30T09:29:32.378Z,2.50
2022-07-30T09:32:06.211Z,2.50
2022-07-30T09:34:37.352Z,2.95
2022-07-30T09:37:16.746Z,2.73
2022-07-30T09:39:56.500Z,3.03
2022-07-30T09:42:27.471Z,2.70
2022-07-30T09:45:14.313Z,2.50
2022-07-30T09:47:44.981Z,2.67
2022-07-30T09:50:17.915Z,2.60
2022-07-30T09:53:09.480Z,2.65
2022-07-30T09:55:41.398Z,2.30
2022-07-30T09:58:09.069Z,3.28
2022-07-30T10:00:36.385Z,2.85
2022-07-30T10:03:21.780Z,2.55
2022-07-30T10:06:03.542Z,2.45
2022-07-30T10:08:50.795Z,2.58
2022-07-30T10:11:22.627Z,2.30
2022-07-30T10:13:53.415Z,2.28
2022-07-30T10:16:20.312Z,2.47
2022-07-30T10:18:50.611Z,2.20
2022-07-30T10:21:17.248Z,2.50
2022-07-30T10:24:46.654Z,2.20
2022-07-30T10:26:33.419Z,2.25
2022-07-30T10:29:01.747Z,2.20
2022-07-30T10:31:49.159Z,2.70
2022-07-30T10:34:17.151Z,2.30
2022-07-30T10:36:46.311Z,2.40
2022-07-30T10:39:15.579Z,2.30
2022-07-30T10:41:48.188Z,2.00
2022-07-30T10:44:38.908Z,2.10
2022-07-30T10:47:10.357Z,2.20
2022-07-30T10:49:41.081Z,2.20
2022-07-30T10:52:09.813Z,2.65
2022-07-30T10:54:44.470Z,2.70
2022-07-30T10:57:31.831Z,2.90
2022-07-30T11:00:04.250Z,2.80
2022-07-30T11:02:35.728Z,2.70
2022-07-30T11:05:18.179Z,2.47
2022-07-30T11:07:47.185Z,2.50
2022-07-30T11:10:49.999Z,3.97
2022-07-30T11:13:16.661Z,2.90
2022-07-30T11:15:56.598Z,2.65
2022-07-30T11:18:24.959Z,2.60
2022-07-30T11:21:14.896Z,2.70
2022-07-30T11:23:42.836Z,2.60
2022-07-30T11:26:14.405Z,2.40
2022-07-30T11:28:43.861Z,2.40
2022-07-30T11:31:56.639Z,2.55
2022-07-30T11:34:18.289Z,2.58
2022-07-30T11:37:18.843Z,2.50
2022-07-30T11:39:55.356Z,2.28
2022-07-30T11:42:36.471Z,2.30
2022-07-30T11:45:15.326Z,1.90
2022-07-30T11:47:46.472Z,2.60
2022-07-30T11:50:27.470Z,2.25
2022-07-30T11:53:01.878Z,3.40
2022-07-30T11:55:30.383Z,2.30
2022-07-30T11:57:57.624Z,2.38
2022-07-30T12:00:24.548Z,2.40
2022-07-30T12:02:51.411Z,2.03
2022-07-30T12:05:25.952Z,2.40
2022-07-30T12:07:57.856Z,2.20
2022-07-30T12:10:26.675Z,2.33
2022-07-30T12:12:54.234Z,2.08
2022-07-30T12:15:31.643Z,2.30
2022-07-30T12:18:24.127Z,1.90
2022-07-30T12:20:45.434Z,2.35
2022-07-30T12:23:12.978Z,2.13
2022-07-30T12:25:47.099Z,2.15
2022-07-30T12:28:27.945Z,2.28
2022-07-30T12:30:54.893Z,1.83
2022-07-30T12:33:22.865Z,1.80
2022-07-30T12:35:51.108Z,1.80
2022-07-30T12:38:18.421Z,1.90
2022-07-30T12:40:51.380Z,1.80
2022-07-30T12:43:18.185Z,1.70
2022-07-30T12:45:51.849Z,1.70
2022-07-30T12:48:21.139Z,1.90
2022-07-30T12:50:48.808Z,1.80
2022-07-30T12:53:15.544Z,1.90
2022-07-30T12:55:43.000Z,1.80
2022-07-30T12:58:10.426Z,1.83
2022-07-30T13:00:52.859Z,2.00
2022-07-30T13:03:23.561Z,2.10
2022-07-30T13:05:51.215Z,2.13
2022-07-30T13:08:42.128Z,2.15
2022-07-30T13:11:08.787Z,1.90
2022-07-30T13:13:35.523Z,1.80
2022-07-30T13:16:05.259Z,2.20
2022-07-30T13:18:32.799Z,2.50
2022-07-30T13:20:59.665Z,2.60
2022-07-30T13:23:27.500Z,3.57
2022-07-30T13:25:54.144Z,2.70
2022-07-30T13:28:20.815Z,2.20
2022-07-30T13:30:47.622Z,2.10
2022-07-30T13:33:14.528Z,2.10
2022-07-30T13:35:41.205Z,2.43
2022-07-30T13:38:07.950Z,1.60
2022-07-30T13:40:34.646Z,2.00
2022-07-30T13:43:01.595Z,2.20
2022-07-30T13:45:28.348Z,2.20
2022-07-30T13:47:55.264Z,2.17
2022-07-30T13:50:22.004Z,2.50
2022-07-30T13:52:49.182Z,2.30
2022-07-30T13:55:15.914Z,2.10
2022-07-30T13:57:45.080Z,2.10
2022-07-30T14:00:12.627Z,2.20
2022-07-30T14:02:39.402Z,2.43
2022-07-30T14:05:09.249Z,2.33
2022-07-30T14:07:39.306Z,2.13
2022-07-30T14:10:07.092Z,2.13
2022-07-30T14:12:37.888Z,2.40
2022-07-30T14:15:04.999Z,2.30
2022-07-30T14:17:31.754Z,2.00
2022-07-30T14:19:58.443Z,1.93
2022-07-30T14:22:25.112Z,2.10
2022-07-30T14:24:51.832Z,2.00
2022-07-30T14:27:20.384Z,2.10
2022-07-30T14:29:47.626Z,2.10
2022-07-30T14:32:14.289Z,1.90
2022-07-30T14:34:41.324Z,2.20
2022-07-30T14:37:15.084Z,2.10
2022-07-30T14:39:41.751Z,2.10
2022-07-30T14:42:08.425Z,2.63
2022-07-30T14:44:35.136Z,2.43
2022-07-30T14:47:01.818Z,2.40
2022-07-30T14:49:28.531Z,2.17
2022-07-30T14:51:55.554Z,2.13
2022-07-30T14:54:22.554Z,2.20
2022-07-30T14:56:49.482Z,2.37
2022-07-30T14:59:16.890Z,2.60
2022-07-30T15:01:43.887Z,3.27
2022-07-30T15:04:11.509Z,2.63
2022-07-30T15:06:38.233Z,2.57
